createdAt,value
2018-05-13T00:00:29.605Z,16.10
2018-05-13T00:02:57.363Z,16.10
2018-05-13T00:05:25.036Z,16.10
2018-05-13T00:07:52.731Z,16.10
2018-05-13T00:10:20.411Z,16.00
2018-05-13T00:12:48.861Z,16.00
2018-05-13T00:15:16.544Z,15.90
2018-05-13T00:17:44.255Z,16.00
2018-05-13T00:20:11.918Z,16.00
2018-05-13T00:22:39.611Z,15.90
2018-05-13T00:25:07.298Z,15.80
2018-05-13T00:27:35.750Z,15.70
2018-05-13T00:30:03.437Z,15.70
2018-05-13T00:32:31.183Z,15.70
2018-05-13T00:34:58.847Z,15.60
2018-05-13T00:37:26.611Z,15.60
2018-05-13T00:39:54.363Z,15.50
2018-05-13T00:42:22.142Z,15.40
2018-05-13T00:44:49.891Z,15.40
2018-05-13T00:47:17.559Z,15.50
2018-05-13T00:49:45.323Z,15.40
2018-05-13T00:52:13.100Z,15.30
2018-05-13T00:54:46.705Z,15.30
2018-05-13T00:57:14.468Z,15.30
2018-05-13T00:59:42.131Z,15.30
2018-05-13T01:02:10.655Z,15.40
2018-05-13T01:04:38.342Z,15.40
2018-05-13T01:07:06.019Z,15.50
2018-05-13T01:09:33.723Z,15.50
2018-05-13T01:12:01.409Z,15.50
2018-05-13T01:14:29.108Z,15.60
2018-05-13T01:16:56.777Z,15.60
2018-05-13T01:19:24.499Z,15.60
2018-05-13T01:21:52.173Z,15.60
2018-05-13T01:24:20.194Z,15.70
2018-05-13T01:26:48.628Z,15.70
2018-05-13T01:29:17.151Z,15.70
2018-05-13T01:31:44.824Z,15.70
2018-05-13T01:34:12.571Z,15.80
2018-05-13T01:36:40.258Z,15.80
2018-05-13T01:39:07.940Z,15.70
2018-05-13T01:41:35.617Z,15.70
2018-05-13T01:44:04.084Z,15.60
2018-05-13T01:46:31.763Z,15.60
2018-05-13T01:49:00.295Z,15.50
2018-05-13T01:51:28.057Z,15.50
2018-05-13T01:53:55.751Z,15.60
2018-05-13T01:56:23.452Z,15.50
2018-05-13T01:58:51.989Z,15.50
2018-05-13T02:01:19.651Z,15.50
2018-05-13T02:03:47.417Z,15.60
2018-05-13T02:06:15.159Z,15.60
2018-05-13T02:08:42.817Z,15.60
2018-05-13T02:11:10.523Z,15.60
2018-05-13T02:13:38.256Z,15.70
2018-05-13T02:16:06.007Z,15.70
2018-05-13T02:18:33.774Z,15.70
2018-05-13T02:21:01.488Z,15.60
2018-05-13T02:23:29.199Z,15.60
2018-05-13T02:25:56.890Z,15.60
2018-05-13T02:28:24.560Z,15.60
2018-05-13T02:30:52.245Z,15.60
2018-05-13T02:33:20.698Z,15.70
2018-05-13T02:35:48.388Z,15.60
2018-05-13T02:38:16.063Z,15.70
2018-05-13T02:40:44.508Z,15.60
2018-05-13T02:43:12.184Z,15.60
2018-05-13T02:45:39.858Z,15.60
2018-05-13T02:48:08.400Z,15.50
2018-05-13T02:50:36.076Z,15.50
2018-05-13T02:53:03.819Z,15.50
2018-05-13T02:55:31.495Z,15.50
2018-05-13T02:57:59.252Z,15.50
2018-05-13T03:00:26.953Z,15.50
2018-05-13T03:02:54.619Z,15.50
2018-05-13T03:05:23.067Z,15.50
2018-05-13T03:07:50.813Z,15.50
2018-05-13T03:10:18.566Z,15.60
2018-05-13T03:12:46.260Z,15.50
2018-05-13T03:15:14.011Z,15.50
2018-05-13T03:17:41.687Z,15.50
2018-05-13T03:20:09.399Z,15.50
2018-05-13T03:22:37.846Z,15.40
2018-05-13T03:25:05.537Z,15.40
2018-05-13T03:27:33.226Z,15.40
2018-05-13T03:30:00.935Z,15.40
2018-05-13T03:32:28.614Z,15.40
2018-05-13T03:34:56.367Z,15.40
2018-05-13T03:37:24.137Z,15.40
2018-05-13T03:39:51.779Z,15.40
2018-05-13T03:42:19.537Z,15.40
2018-05-13T03:44:47.285Z,15.40
2018-05-13T03:47:14.986Z,15.40
2018-05-13T03:49:42.729Z,15.40
2018-05-13T03:52:10.411Z,15.50
2018-05-13T03:54:38.085Z,15.50
2018-05-13T03:57:05.818Z,15.50
2018-05-13T03:59:33.492Z,15.60
2018-05-13T04:02:01.183Z,15.60
2018-05-13T04:04:29.690Z,15.70
2018-05-13T04:06:58.209Z,15.70
2018-05-13T04:09:31.923Z,15.70
2018-05-13T04:12:05.543Z,15.70
2018-05-13T04:14:39.223Z,15.80
2018-05-13T04:17:06.914Z,15.90
2018-05-13T04:19:34.588Z,15.90
2018-05-13T04:22:02.279Z,16.00
2018-05-13T04:24:30.795Z,16.10
2018-05-13T04:26:58.486Z,16.10
2018-05-13T04:29:26.217Z,16.10
2018-05-13T04:31:53.909Z,16.20
2018-05-13T04:34:22.452Z,16.30
2018-05-13T04:36:50.116Z,16.30
2018-05-13T04:39:17.783Z,16.40
2018-05-13T04:41:45.491Z,16.40
2018-05-13T04:44:13.166Z,16.40
2018-05-13T04:46:40.857Z,16.40
2018-05-13T04:49:08.535Z,16.50
2018-05-13T04:51:36.230Z,16.50
2018-05-13T04:54:04.675Z,16.60
2018-05-13T04:56:32.364Z,16.60
2018-05-13T04:59:00.034Z,16.70
2018-05-13T05:01:28.491Z,16.80
2018-05-13T05:03:56.156Z,16.80
2018-05-13T05:06:24.422Z,16.90
2018-05-13T05:08:52.123Z,16.90
2018-05-13T05:11:19.854Z,17.00
2018-05-13T05:13:47.515Z,17.00
2018-05-13T05:16:15.380Z,17.00
2018-05-13T05:18:43.150Z,17.10
2018-05-13T05:21:10.906Z,17.10
2018-05-13T05:23:38.578Z,17.20
2018-05-13T05:26:06.295Z,17.20
2018-05-13T05:28:33.988Z,17.30
2018-05-13T05:31:01.668Z,17.40
2018-05-13T05:33:29.407Z,17.50
2018-05-13T05:35:57.081Z,17.50
2018-05-13T05:38:24.864Z,17.60
2018-05-13T05:40:52.518Z,17.60
2018-05-13T05:43:20.285Z,17.70
2018-05-13T05:45:48.024Z,17.60
2018-05-13T05:48:15.757Z,17.70
2018-05-13T05:50:43.388Z,17.80
2018-05-13T05:53:11.141Z,17.90
2018-05-13T05:55:38.878Z,18.00
2018-05-13T05:58:06.671Z,18.00
2018-05-13T06:00:34.411Z,18.10
2018-05-13T06:03:02.201Z,18.10
2018-05-13T06:05:29.851Z,18.20
2018-05-13T06:07:57.521Z,18.30
2018-05-13T06:10:25.228Z,18.40
2018-05-13T06:12:53.686Z,18.50
2018-05-13T06:15:21.347Z,18.50
2018-05-13T06:17:49.064Z,18.60
2018-05-13T06:20:16.843Z,18.70
2018-05-13T06:22:44.515Z,18.70
2018-05-13T06:25:12.226Z,18.90
2018-05-13T06:27:39.878Z,19.00
2018-05-13T06:30:07.581Z,19.10
2018-05-13T06:32:35.259Z,19.10
2018-05-13T06:35:02.943Z,19.20
2018-05-13T06:37:30.619Z,19.30
2018-05-13T06:39:58.294Z,19.40
2018-05-13T06:42:26.729Z,19.70
2018-05-13T06:44:54.529Z,19.70
2018-05-13T06:47:22.204Z,19.80
2018-05-13T06:49:49.891Z,20.00
2018-05-13T06:52:17.607Z,20.10
2018-05-13T06:54:45.262Z,20.30
2018-05-13T06:57:13.029Z,20.20
2018-05-13T06:59:40.682Z,20.30
2018-05-13T07:02:08.439Z,20.50
2018-05-13T07:04:36.203Z,20.60
2018-05-13T07:07:03.880Z,20.60
2018-05-13T07:09:31.561Z,20.70
2018-05-13T07:11:59.225Z,20.70
2018-05-13T07:14:26.913Z,20.80
2018-05-13T07:16:55.432Z,21.10
2018-05-13T07:19:23.204Z,21.10
2018-05-13T07:21:50.872Z,21.20
2018-05-13T07:24:18.556Z,21.40
2018-05-13T07:26:47.105Z,21.50
2018-05-13T07:29:14.800Z,21.60
2018-05-13T07:31:42.463Z,21.80
2018-05-13T07:34:10.165Z,21.90
2018-05-13T07:36:38.788Z,22.20
2018-05-13T07:39:06.464Z,22.20
2018-05-13T07:41:34.217Z,22.40
2018-05-13T07:44:01.979Z,22.50
2018-05-13T07:46:29.663Z,22.60
2018-05-13T07:48:57.402Z,22.60
2018-05-13T07:51:25.100Z,22.60
2018-05-13T07:53:52.877Z,22.70
2018-05-13T07:56:20.635Z,22.70
2018-05-13T07:58:48.309Z,22.70
2018-05-13T08:01:16.027Z,22.70
2018-05-13T08:03:43.703Z,22.80
2018-05-13T08:06:11.444Z,22.90
2018-05-13T08:08:39.853Z,22.90
2018-05-13T08:11:07.532Z,22.90
2018-05-13T08:13:35.262Z,23.10
2018-05-13T08:16:03.020Z,23.00
2018-05-13T08:18:30.793Z,23.10
2018-05-13T08:20:58.500Z,23.30
2018-05-13T08:23:26.175Z,23.20
2018-05-13T08:25:53.855Z,23.40
2018-05-13T08:28:21.570Z,23.40
2018-05-13T08:30:49.263Z,23.50
2018-05-13T08:33:16.990Z,23.60
2018-05-13T08:35:44.687Z,23.60
2018-05-13T08:38:12.384Z,23.70
2018-05-13T08:40:40.083Z,23.80
2018-05-13T08:43:07.828Z,23.80
2018-05-13T08:45:35.523Z,23.80
2018-05-13T08:48:03.187Z,23.80
2018-05-13T08:50:30.929Z,24.00
2018-05-13T08:52:58.713Z,24.10
2018-05-13T08:55:26.457Z,24.00
2018-05-13T08:57:54.201Z,24.10
2018-05-13T09:00:21.891Z,24.20
2018-05-13T09:02:49.559Z,24.30
2018-05-13T09:05:17.268Z,24.40
2018-05-13T09:07:45.814Z,24.50
2018-05-13T09:10:13.477Z,24.40
2018-05-13T09:12:41.173Z,24.50
2018-05-13T09:15:10.545Z,24.60
2018-05-13T09:17:38.214Z,24.50
2018-05-13T09:20:05.895Z,24.60
2018-05-13T09:22:34.426Z,24.80
2018-05-13T09:25:02.097Z,24.80
2018-05-13T09:27:29.851Z,24.90
2018-05-13T09:29:57.535Z,25.00
2018-05-13T09:32:25.280Z,24.90
2018-05-13T09:34:52.969Z,24.90
2018-05-13T09:37:20.664Z,25.10
2018-05-13T09:39:49.131Z,25.30
2018-05-13T09:42:16.858Z,25.30
2018-05-13T09:44:44.545Z,25.40
2018-05-13T09:47:12.285Z,25.50
2018-05-13T09:49:39.972Z,25.40
2018-05-13T09:52:07.645Z,25.50
2018-05-13T09:54:35.328Z,25.70
2018-05-13T09:57:03.802Z,25.80
2018-05-13T09:59:31.470Z,25.80
2018-05-13T10:01:59.169Z,26.00
2018-05-13T10:04:26.949Z,25.90
2018-05-13T10:06:54.637Z,25.80
2018-05-13T10:09:22.319Z,25.90
2018-05-13T10:11:50.011Z,25.80
2018-05-13T10:14:18.458Z,25.80
2018-05-13T10:16:46.141Z,25.80
2018-05-13T10:19:14.578Z,26.00
2018-05-13T10:21:42.326Z,26.00
2018-05-13T10:24:10.003Z,26.10
2018-05-13T10:26:37.745Z,26.10
2018-05-13T10:29:05.443Z,26.20
2018-05-13T10:31:34.037Z,26.10
2018-05-13T10:34:01.776Z,26.20
2018-05-13T10:36:29.609Z,26.40
2018-05-13T10:38:57.221Z,26.40
2018-05-13T10:41:24.987Z,26.40
2018-05-13T10:43:52.727Z,26.50
2018-05-13T10:46:20.518Z,26.50
2018-05-13T10:48:48.229Z,26.70
2018-05-13T10:51:15.946Z,26.80
2018-05-13T10:53:43.624Z,26.90
2018-05-13T10:56:11.346Z,26.80
2018-05-13T10:58:39.111Z,26.80
2018-05-13T11:01:06.788Z,26.90
2018-05-13T11:03:34.512Z,27.10
2018-05-13T11:06:02.949Z,27.30
2018-05-13T11:08:30.631Z,27.20
2018-05-13T11:10:58.363Z,27.20
2018-05-13T11:13:26.055Z,27.10
2018-05-13T11:15:53.800Z,27.20
2018-05-13T11:18:21.537Z,27.30
2018-05-13T11:20:49.312Z,27.00
2018-05-13T11:23:16.977Z,27.00
2018-05-13T11:25:44.726Z,27.10
2018-05-13T11:28:12.460Z,27.20
2018-05-13T11:30:40.885Z,27.20
2018-05-13T11:33:08.569Z,27.10
2018-05-13T11:35:36.234Z,27.20
2018-05-13T11:38:04.711Z,27.60
2018-05-13T11:40:32.388Z,27.50
2018-05-13T11:43:00.069Z,27.50
2018-05-13T11:45:27.848Z,27.50
2018-05-13T11:47:55.475Z,27.50
2018-05-13T11:50:23.211Z,27.50
2018-05-13T11:52:50.906Z,27.50
2018-05-13T11:55:18.584Z,27.60
2018-05-13T11:57:46.270Z,27.60
2018-05-13T12:00:13.968Z,27.80
2018-05-13T12:02:41.731Z,27.90
2018-05-13T12:05:09.481Z,28.00
2018-05-13T12:07:37.172Z,28.30
2018-05-13T12:10:04.841Z,28.80
2018-05-13T12:12:32.553Z,30.30
2018-05-13T12:15:00.245Z,32.60
2018-05-13T12:17:28.135Z,34.50
2018-05-13T12:19:55.885Z,37.10
2018-05-13T12:22:23.565Z,38.80
2018-05-13T12:24:51.307Z,38.70
2018-05-13T12:27:18.992Z,39.90
2018-05-13T12:29:46.722Z,41.30
2018-05-13T12:32:14.501Z,43.00
2018-05-13T12:34:42.173Z,43.00
2018-05-13T12:37:09.925Z,43.40
2018-05-13T12:39:37.605Z,43.50
2018-05-13T12:42:05.351Z,42.40
2018-05-13T12:44:33.047Z,42.70
2018-05-13T12:47:00.728Z,42.40
2018-05-13T12:49:28.449Z,43.90
2018-05-13T12:51:56.107Z,44.50
2018-05-13T12:54:23.812Z,43.40
2018-05-13T12:56:51.480Z,45.20
2018-05-13T12:59:19.166Z,45.90
2018-05-13T13:01:47.613Z,43.60
2018-05-13T13:04:15.345Z,43.60
2018-05-13T13:06:43.019Z,44.40
2018-05-13T13:09:10.712Z,44.40
2018-05-13T13:11:39.129Z,42.70
2018-05-13T13:14:06.820Z,42.70
2018-05-13T13:16:34.498Z,42.80
2018-05-13T13:19:02.247Z,42.90
2018-05-13T13:21:30.028Z,44.00
2018-05-13T13:23:57.701Z,43.90
2018-05-13T13:26:25.456Z,44.00
2018-05-13T13:28:53.130Z,43.80
2018-05-13T13:31:20.860Z,43.30
2018-05-13T13:33:48.562Z,43.10
2018-05-13T13:36:16.239Z,43.10
2018-05-13T13:38:44.749Z,43.70
2018-05-13T13:41:12.475Z,43.70
2018-05-13T13:43:41.272Z,43.80
2018-05-13T13:46:09.308Z,43.70
2018-05-13T13:48:37.250Z,43.60
2018-05-13T13:51:06.524Z,43.10
2018-05-13T13:53:34.456Z,42.90
2018-05-13T13:56:02.718Z,42.40
2018-05-13T13:58:31.804Z,41.80
2018-05-13T14:00:59.612Z,42.00
2018-05-13T14:03:29.021Z,41.60
2018-05-13T14:05:58.103Z,41.60
2018-05-13T14:08:27.159Z,41.00
2018-05-13T14:10:55.135Z,40.90
2018-05-13T14:13:23.091Z,40.40
2018-05-13T14:15:51.954Z,40.40
2018-05-13T14:18:21.231Z,40.70
2018-05-13T14:20:49.196Z,40.70
2018-05-13T14:23:17.217Z,40.80
2018-05-13T14:25:45.711Z,40.00
2018-05-13T14:28:13.467Z,39.90
2018-05-13T14:30:42.180Z,39.60
2018-05-13T14:33:11.337Z,39.70
2018-05-13T14:35:40.187Z,39.60
2018-05-13T14:38:07.953Z,39.60
2018-05-13T14:40:35.591Z,38.60
2018-05-13T14:43:03.350Z,38.90
2018-05-13T14:45:31.236Z,38.50
2018-05-13T14:47:58.937Z,38.90
2018-05-13T14:50:27.392Z,39.40
2018-05-13T14:52:55.144Z,39.40
2018-05-13T14:55:22.821Z,39.10
2018-05-13T14:57:50.510Z,39.10
2018-05-13T15:00:18.248Z,39.80
2018-05-13T15:02:45.911Z,39.70
2018-05-13T15:07:47.815Z,39.20
2018-05-13T15:10:15.556Z,39.10
2018-05-13T15:12:43.223Z,38.30
2018-05-13T15:15:10.983Z,38.40
2018-05-13T15:17:38.729Z,37.10
2018-05-13T15:20:06.413Z,37.30
2018-05-13T15:22:34.202Z,38.10
2018-05-13T15:25:01.848Z,38.00
2018-05-13T15:27:29.576Z,38.10
2018-05-13T15:29:57.352Z,38.00
2018-05-13T15:32:25.033Z,37.20
2018-05-13T15:34:52.698Z,36.80
2018-05-13T15:37:20.481Z,37.20
2018-05-13T15:39:48.101Z,37.50
2018-05-13T15:42:15.867Z,37.60
2018-05-13T15:44:43.537Z,38.00
2018-05-13T15:47:11.245Z,37.50
2018-05-13T15:49:39.776Z,38.00
2018-05-13T15:52:07.459Z,38.00
2018-05-13T15:54:35.329Z,37.70
2018-05-13T15:57:03.062Z,37.30
2018-05-13T15:59:30.749Z,37.00
2018-05-13T16:01:58.522Z,37.50
2018-05-13T16:04:26.288Z,37.50
2018-05-13T16:06:53.972Z,37.20
2018-05-13T16:09:21.755Z,37.20
2018-05-13T16:11:50.282Z,36.70
2018-05-13T16:14:17.945Z,36.70
2018-05-13T16:16:45.631Z,36.40
2018-05-13T16:19:13.395Z,36.50
2018-05-13T16:21:41.081Z,36.40
2018-05-13T16:24:09.527Z,36.00
2018-05-13T16:26:37.202Z,36.00
2018-05-13T16:29:04.867Z,35.10
2018-05-13T16:31:32.555Z,35.60
2018-05-13T16:34:01.110Z,35.30
2018-05-13T16:36:28.849Z,35.30
2018-05-13T16:38:56.533Z,35.20
2018-05-13T16:41:24.200Z,35.50
2018-05-13T16:43:51.961Z,35.60
2018-05-13T16:46:19.701Z,35.60
2018-05-13T16:48:47.403Z,35.50
2018-05-13T16:51:15.106Z,35.30
2018-05-13T16:53:42.795Z,35.60
2018-05-13T16:56:10.473Z,35.40
2018-05-13T16:58:38.167Z,34.80
2018-05-13T17:01:06.085Z,34.50
2018-05-13T17:03:33.866Z,34.70
2018-05-13T17:06:01.626Z,34.40
2018-05-13T17:08:29.315Z,34.50
2018-05-13T17:10:57.148Z,34.20
2018-05-13T17:13:24.835Z,34.10
2018-05-13T17:15:52.526Z,34.00
2018-05-13T17:18:21.086Z,33.60
2018-05-13T17:20:48.730Z,33.60
2018-05-13T17:23:16.510Z,33.70
2018-05-13T17:25:44.182Z,33.70
2018-05-13T17:28:11.910Z,33.50
2018-05-13T17:30:39.582Z,33.40
2018-05-13T17:33:07.273Z,32.70
2018-05-13T17:35:34.967Z,32.70
2018-05-13T17:38:03.510Z,32.90
2018-05-13T17:40:31.263Z,32.90
2018-05-13T17:42:59.018Z,32.80
2018-05-13T17:45:26.705Z,32.30
2018-05-13T17:47:54.533Z,32.00
2018-05-13T17:50:22.225Z,31.90
2018-05-13T17:52:49.923Z,31.90
2018-05-13T17:55:17.664Z,31.80
2018-05-13T17:57:45.430Z,31.70
2018-05-13T18:00:13.139Z,31.50
2018-05-13T18:02:40.935Z,31.30
2018-05-13T18:05:08.613Z,30.90
2018-05-13T18:07:36.306Z,30.50
2018-05-13T18:10:04.051Z,30.30
2018-05-13T18:12:31.712Z,30.40
2018-05-13T18:14:59.441Z,30.10
2018-05-13T18:17:27.164Z,29.80
2018-05-13T18:19:54.888Z,29.60
2018-05-13T18:22:22.595Z,29.10
2018-05-13T18:24:50.412Z,28.50
2018-05-13T18:27:17.954Z,28.10
2018-05-13T18:29:45.732Z,28.00
2018-05-13T18:32:13.422Z,27.40
2018-05-13T18:34:41.121Z,27.00
2018-05-13T18:37:09.550Z,26.20
2018-05-13T18:39:37.333Z,26.10
2018-05-13T18:42:05.011Z,26.00
2018-05-13T18:44:32.698Z,25.60
2018-05-13T18:47:01.229Z,25.00
2018-05-13T18:49:28.995Z,25.00
2018-05-13T18:51:56.668Z,24.80
2018-05-13T18:54:24.370Z,24.40
2018-05-13T18:56:52.831Z,24.00
2018-05-13T18:59:20.620Z,23.90
2018-05-13T19:01:49.063Z,23.60
2018-05-13T19:04:16.801Z,23.60
2018-05-13T19:06:44.571Z,23.50
2018-05-13T19:09:12.257Z,23.30
2018-05-13T19:11:39.934Z,23.10
2018-05-13T19:14:07.614Z,23.00
2018-05-13T19:16:36.046Z,22.60
2018-05-13T19:19:03.874Z,22.60
2018-05-13T19:21:31.508Z,22.50
2018-05-13T19:23:59.229Z,22.40
2018-05-13T19:26:26.889Z,22.30
2018-05-13T19:28:54.578Z,22.30
2018-05-13T19:31:22.392Z,22.20
2018-05-13T19:33:50.083Z,22.00
2018-05-13T19:36:17.768Z,21.80
2018-05-13T19:38:45.443Z,21.70
2018-05-13T19:41:13.134Z,21.60
2018-05-13T19:43:41.574Z,21.50
2018-05-13T19:46:09.266Z,21.40
2018-05-13T19:48:37.043Z,21.40
2018-05-13T19:51:04.777Z,21.30
2018-05-13T19:53:32.419Z,21.30
2018-05-13T19:56:00.114Z,21.20
2018-05-13T19:58:27.851Z,21.10
2018-05-13T20:00:55.537Z,21.00
2018-05-13T20:03:23.399Z,21.00
2018-05-13T20:05:51.687Z,20.90
2018-05-13T20:08:19.349Z,20.90
2018-05-13T20:10:47.062Z,20.80
2018-05-13T20:13:14.854Z,20.80
2018-05-13T20:15:42.535Z,20.70
2018-05-13T20:18:10.293Z,20.60
2018-05-13T20:20:38.470Z,20.60
2018-05-13T20:23:11.957Z,20.60
2018-05-13T20:25:39.662Z,20.50
2018-05-13T20:28:07.328Z,20.50
2018-05-13T20:30:35.859Z,20.40
2018-05-13T20:33:03.571Z,20.30
2018-05-13T20:35:32.099Z,20.30
2018-05-13T20:37:59.775Z,20.30
2018-05-13T20:40:27.467Z,20.30
2018-05-13T20:42:55.216Z,20.30
2018-05-13T20:45:22.949Z,20.20
2018-05-13T20:47:50.719Z,20.10
2018-05-13T20:50:18.411Z,20.10
2018-05-13T20:52:46.155Z,20.10
2018-05-13T20:55:13.842Z,20.00
2018-05-13T20:57:41.589Z,20.00
2018-05-13T21:00:09.274Z,19.90
2018-05-13T21:02:37.003Z,19.90
2018-05-13T21:05:04.780Z,19.80
2018-05-13T21:07:32.448Z,19.80
2018-05-13T21:10:00.116Z,19.80
2018-05-13T21:12:27.886Z,19.70
2018-05-13T21:14:55.530Z,19.70
2018-05-13T21:17:23.227Z,19.70
2018-05-13T21:19:50.947Z,19.60
2018-05-13T21:22:18.751Z,19.60
2018-05-13T21:24:46.410Z,19.60
2018-05-13T21:27:14.115Z,19.60
2018-05-13T21:29:41.815Z,19.50
2018-05-13T21:32:09.575Z,19.50
2018-05-13T21:34:37.260Z,19.50
2018-05-13T21:37:05.004Z,19.50
2018-05-13T21:39:32.666Z,19.40
2018-05-13T21:42:00.451Z,19.40
2018-05-13T21:44:28.110Z,19.40
2018-05-13T21:46:55.794Z,19.40
2018-05-13T21:49:23.517Z,19.40
2018-05-13T21:51:51.200Z,19.30
2018-05-13T21:54:18.986Z,19.30
2018-05-13T21:56:46.647Z,19.30
2018-05-13T21:59:14.398Z,19.30
2018-05-13T22:01:42.054Z,19.30
2018-05-13T22:04:09.730Z,19.30
2018-05-13T22:06:37.423Z,19.30
2018-05-13T22:09:05.848Z,19.30
2018-05-13T22:11:33.531Z,19.30
2018-05-13T22:14:01.371Z,19.30
2018-05-13T22:16:29.079Z,19.30
2018-05-13T22:18:56.756Z,19.30
2018-05-13T22:21:25.198Z,19.20
2018-05-13T22:23:52.884Z,19.20
2018-05-13T22:26:21.345Z,19.20
2018-05-13T22:28:49.010Z,19.10
2018-05-13T22:31:16.720Z,19.10
2018-05-13T22:33:45.245Z,19.10
2018-05-13T22:36:13.025Z,19.10
2018-05-13T22:38:40.772Z,19.10
2018-05-13T22:41:08.456Z,19.10
2018-05-13T22:43:36.127Z,19.00
2018-05-13T22:46:03.807Z,19.00
2018-05-13T22:48:32.365Z,19.00
2018-05-13T22:51:00.002Z,19.00
2018-05-13T22:53:27.688Z,19.00
2018-05-13T22:55:55.361Z,19.00
2018-05-13T22:58:23.146Z,18.90
2018-05-13T23:00:50.769Z,18.90
2018-05-13T23:03:18.440Z,18.80
2018-05-13T23:05:46.113Z,18.80
2018-05-13T23:08:13.805Z,18.80
2018-05-13T23:10:42.245Z,18.80
2018-05-13T23:13:09.917Z,18.80
2018-05-13T23:15:37.599Z,18.80
2018-05-13T23:18:05.327Z,18.70
2018-05-13T23:20:33.202Z,18.70
2018-05-13T23:23:00.768Z,18.70
2018-05-13T23:25:28.438Z,18.70
2018-05-13T23:27:56.118Z,18.70
2018-05-13T23:30:23.796Z,18.70
2018-05-13T23:32:52.267Z,18.60
2018-05-13T23:35:19.921Z,18.60
2018-05-13T23:37:48.426Z,18.60
2018-05-13T23:40:16.855Z,18.50
2018-05-13T23:42:44.551Z,18.50
2018-05-13T23:45:12.234Z,18.50
2018-05-13T23:47:40.687Z,18.50
2018-05-13T23:50:08.393Z,18.40
2018-05-13T23:52:36.050Z,18.40
2018-05-13T23:55:03.740Z,18.40
2018-05-13T23:57:31.507Z,18.30
2018-05-13T23:59:59.165Z,18.30
